Saturday, September 20, 2014
04:00 UTC
  |  Log In   |  Register Free
Airport Search:

Pearson Field Airport
(KVUO)

Pearson Field Airport Diagram
No Airport Diagram Available

FAA data valid effective September 18, 2014 - November 13, 2014 (unless otherwise noted).

 
 
 
 
 
 
 
 
 
 
 
 
 
 

Current Aviation Weather for Pearson Field Airport (KVUO)

The most recent METAR observation for KVUO was updated at: 0316
METAR Summary (Translated METAR)
KVUO
200253Z AUTO 35005KT 10SM CLR 23/13 A3001 RMK AO2 SLP162 T02330133 55002
KPDX
200253Z 32007KT 10SM FEW080 FEW250 23/15 A3001 RMK AO2 SLP162 FU FEW080 T02330150 55003
(3.1 nm SE from KVUO)
KTTD
200253Z 27003KT 10SM CLR 23/13 A2999 RMK AO2 SLP157 T02330133 55003
(11.5 nm SE from KVUO)
TAF Summary (Translated TAF)
KPDX
(3.1 nm SE from KVUO)
200309Z 2003/2024 32005KT P6SM SKC FM200700 VRB03KT P6SM FEW250 FM202000 05012KT P6SM SKC
KTTD
(11.5 nm SE from KVUO)
191720Z 1918/2018 VRB03KT P6SM FEW050 FM192200 33006KT P6SM SCT050 FM200900 09007KT P6SM SKC
  Airport Weather Conditions for KVUO

 Current Weather at VUO
74° F
Fair
North winds at 5.8 mph
VUO NOAA Radar

Pressure: 30.01 in
Humidity: 54%
Wind: North at 5.8 MPH (5 KT)
Dew Point: 55.9°F
Visibility: 10.00 mi


Airport Weather Forecast for KVUO

Translated METAR and TAF for KVUO
Translated METAR for KVUO (0355 UTC 20 September 2014)
found at http://aviationweather.gov/adds/metars/
 
METAR text: KVUO 200253Z AUTO 35005KT 10SM CLR 23/13 A3001 RMK AO2 SLP162 T02330133 55002
Conditions at: KVUO (VANCOUVER , WA, US) observed 0253 UTC 20 September 2014
Temperature: 23.3°C (74°F)
Dewpoint: 13.3°C (56°F) [RH = 53%]
Pressure (altimeter): 30.01 inches Hg (1016.3 mb)
[Sea-level pressure: 1016.2 mb]
Winds: from the N (350 degrees) at 6 MPH (5 knots; 2.6 m/s)
Visibility: 10 or more miles (16+ km)
Ceiling: at least 12,000 feet AGL
Clouds: sky clear below 12,000 feet AGL
Weather: automated observation with no human augmentation;
there may or may not be significant weather present at this time
Translated TAF for KVUO

There is no translated TAF available for this airport

Find All Airport Services Find A Hotel Find A Rental Car Find A Golf Course Find A Restaurant $100 Hamburger



FBO's on the Field
FBO Company Facility Photos Services Transportation Aviation Fuel Prices: Prices include tax
Catering Weather Repair Courtesy Rental Type 100LL JetA JetA+ MOGAS 8087
 
Aero Maintenance Inc

This FBO has not yet been rated
FS:AirBP
Last Updated: Aug-13
Login to update fuel prices
SS:
Contact Aero Maintenance IncMore FBO Information
 
Add another FBO Facility Photos Catering Weather Repair Courtesy Rental Type 100LL JetA JetA+ MOGAS 8087
Services Transportation Aviation Fuel Prices: Prices include tax


model-print
model-print
model-print
model-print